Pittsburgh, Pennsylvania
Traffic Map
Current Weather Conditions
Pittsburgh, Pennsylvania
Overcast
Overcast
22°
Feels Like: 22°
Wind Chill: 22° Ceiling: 7000
Heat Index: 22° Visibility: 10mi
Dew Point: 17° Wind: 13mph
Humidity: 73% Direction: 120° (ESE)
Pressure: 29.83in Gusts: 22mph
Raw Report DataKAGC 221753Z 12011G19KT 10SM FEW026 FEW055 OVC070 22/17 A2983 RMK AO2 SLP098 60021 T02220172 10228 20178 56006
Traffic Incident Summary
Active as of:
Severity:
Category:
InformationThere was an issue retrieving the traffic information for this location. Please try a different location or try again shortly.
Advertisements